createdAt,value
2023-05-08T00:00:15.245Z,18.29
2023-05-08T00:01:15.161Z,18.46
2023-05-08T00:02:15.262Z,18.47
2023-05-08T00:03:15.251Z,18.58
2023-05-08T00:04:15.401Z,18.60
2023-05-08T00:05:15.265Z,18.64
2023-05-08T00:06:15.320Z,18.57
2023-05-08T00:07:15.370Z,18.50
2023-05-08T00:08:15.420Z,18.49
2023-05-08T00:09:15.460Z,18.66
2023-05-08T00:10:15.744Z,18.74
2023-05-08T00:11:15.689Z,18.47
2023-05-08T00:12:15.592Z,18.19
2023-05-08T00:13:15.756Z,18.30
2023-05-08T00:14:15.697Z,18.32
2023-05-08T00:15:15.739Z,18.23
2023-05-08T00:16:15.770Z,18.37
2023-05-08T00:17:15.727Z,18.41
2023-05-08T00:18:15.743Z,18.35
2023-05-08T00:19:15.743Z,18.44
2023-05-08T00:20:15.795Z,18.53
2023-05-08T00:21:15.835Z,18.54
2023-05-08T00:22:15.898Z,18.63
2023-05-08T00:23:15.951Z,18.64
2023-05-08T00:24:15.974Z,18.71
2023-05-08T00:25:16.033Z,18.71
2023-05-08T00:26:16.052Z,18.79
2023-05-08T00:27:16.068Z,18.91
2023-05-08T00:28:16.185Z,18.72
2023-05-08T00:29:16.148Z,18.83
2023-05-08T00:30:16.186Z,18.79
2023-05-08T00:31:16.188Z,18.77
2023-05-08T00:32:16.286Z,18.88
2023-05-08T00:33:16.284Z,18.93
2023-05-08T00:34:16.260Z,18.95
2023-05-08T00:35:16.270Z,18.99
2023-05-08T00:36:16.270Z,18.99
2023-05-08T00:37:16.295Z,18.95
2023-05-08T00:38:16.344Z,18.94
2023-05-08T00:39:16.371Z,18.60
2023-05-08T00:40:16.354Z,18.70
2023-05-08T00:41:16.389Z,18.67
2023-05-08T00:42:16.459Z,18.53
2023-05-08T00:43:16.534Z,18.35
2023-05-08T00:44:16.485Z,18.30
2023-05-08T00:45:16.563Z,18.37
2023-05-08T00:46:16.591Z,18.20
2023-05-08T00:47:16.606Z,18.30
2023-05-08T00:48:16.625Z,18.39
2023-05-08T00:49:16.687Z,18.54
2023-05-08T00:50:16.700Z,18.58
2023-05-08T00:51:16.763Z,18.50
2023-05-08T00:52:16.822Z,18.56
2023-05-08T00:53:16.903Z,18.43
2023-05-08T00:54:16.866Z,18.41
2023-05-08T00:55:16.983Z,18.61
2023-05-08T00:56:17.039Z,18.71
2023-05-08T00:57:17.094Z,18.66
2023-05-08T00:58:17.120Z,18.77
2023-05-08T00:59:17.177Z,18.88
2023-05-08T01:00:17.225Z,18.87
2023-05-08T01:01:17.329Z,18.98
2023-05-08T01:02:17.395Z,19.09
2023-05-08T01:03:17.441Z,19.15
2023-05-08T01:04:17.314Z,19.16
2023-05-08T01:05:17.378Z,19.11
2023-05-08T01:06:17.464Z,19.18
2023-05-08T01:07:17.467Z,19.23
2023-05-08T01:08:17.506Z,19.32
2023-05-08T01:09:17.555Z,19.25
2023-05-08T01:10:18.488Z,19.30
2023-05-08T01:11:17.608Z,19.29
2023-05-08T01:12:17.650Z,18.95
2023-05-08T01:13:17.738Z,19.09
2023-05-08T01:14:17.700Z,18.98
2023-05-08T01:15:17.841Z,18.93
2023-05-08T01:16:17.849Z,18.95
2023-05-08T01:17:17.796Z,18.91
2023-05-08T01:18:17.848Z,18.98
2023-05-08T01:19:17.841Z,18.94
2023-05-08T01:20:17.869Z,18.79
2023-05-08T01:21:17.850Z,18.94
2023-05-08T01:22:17.861Z,18.97
2023-05-08T01:23:17.918Z,18.99
2023-05-08T01:24:17.907Z,18.94
2023-05-08T01:25:17.942Z,18.97
2023-05-08T01:26:17.922Z,19.09
2023-05-08T01:27:17.897Z,19.12
2023-05-08T01:28:17.949Z,19.19
2023-05-08T01:29:17.956Z,19.13
2023-05-08T01:30:17.982Z,18.81
2023-05-08T01:31:18.001Z,18.93
2023-05-08T01:32:18.093Z,18.97
2023-05-08T01:33:18.118Z,19.02
2023-05-08T01:34:18.106Z,19.04
2023-05-08T01:35:18.100Z,19.11
2023-05-08T01:36:18.114Z,19.21
2023-05-08T01:37:18.143Z,19.21
2023-05-08T01:38:18.588Z,19.26
2023-05-08T01:39:18.216Z,19.19
2023-05-08T01:40:18.227Z,19.26
2023-05-08T01:41:18.257Z,19.23
2023-05-08T01:42:18.273Z,19.26
2023-05-08T01:43:18.247Z,19.30
2023-05-08T01:44:18.276Z,19.25
2023-05-08T01:45:18.263Z,19.21
2023-05-08T01:46:18.308Z,19.25
2023-05-08T01:47:18.302Z,19.16
2023-05-08T01:48:18.352Z,19.19
2023-05-08T01:49:18.358Z,19.29
2023-05-08T01:50:18.351Z,19.32
2023-05-08T01:51:18.373Z,19.22
2023-05-08T01:52:18.389Z,19.22
2023-05-08T01:53:18.442Z,19.26
2023-05-08T01:54:18.439Z,19.27
2023-05-08T01:55:18.444Z,19.23
2023-05-08T01:56:18.454Z,19.26
2023-05-08T01:57:18.544Z,19.32
2023-05-08T01:58:18.567Z,19.18
2023-05-08T01:59:18.642Z,19.09
2023-05-08T02:00:18.701Z,19.11
2023-05-08T02:01:18.827Z,19.08
2023-05-08T02:02:18.886Z,19.15
2023-05-08T02:03:18.934Z,19.11
2023-05-08T02:04:18.979Z,19.12
2023-05-08T02:05:18.983Z,19.18
2023-05-08T02:06:19.019Z,19.25
2023-05-08T02:07:19.102Z,19.27
2023-05-08T02:08:19.154Z,19.27
2023-05-08T02:09:19.253Z,19.36
2023-05-08T02:10:19.282Z,19.36
2023-05-08T02:11:19.357Z,19.21
2023-05-08T02:12:19.384Z,19.18
2023-05-08T02:13:19.448Z,19.13
2023-05-08T02:14:19.394Z,19.15
2023-05-08T02:15:19.455Z,19.23
2023-05-08T02:16:19.550Z,19.27
2023-05-08T02:17:19.524Z,19.32
2023-05-08T02:18:19.620Z,19.34
2023-05-08T02:19:19.680Z,19.36
2023-05-08T02:20:19.738Z,19.39
2023-05-08T02:21:19.773Z,19.41
2023-05-08T02:22:19.817Z,19.47
2023-05-08T02:23:19.866Z,19.47
2023-05-08T02:24:19.832Z,19.39
2023-05-08T02:25:19.833Z,19.40
2023-05-08T02:26:19.897Z,19.39
2023-05-08T02:27:19.933Z,19.30
2023-05-08T02:28:20.015Z,19.23
2023-05-08T02:29:20.016Z,19.25
2023-05-08T02:30:20.031Z,19.26
2023-05-08T02:31:20.066Z,19.12
2023-05-08T02:32:20.143Z,19.09
2023-05-08T02:33:20.236Z,19.06
2023-05-08T02:34:20.323Z,18.94
2023-05-08T02:35:20.304Z,18.77
2023-05-08T02:36:20.363Z,18.72
2023-05-08T02:37:20.282Z,18.74
2023-05-08T02:38:20.307Z,18.46
2023-05-08T02:39:20.335Z,18.56
2023-05-08T02:40:20.337Z,18.63
2023-05-08T02:41:20.354Z,18.53
2023-05-08T02:42:20.312Z,18.60
2023-05-08T02:43:20.439Z,18.61
2023-05-08T02:44:20.436Z,18.60
2023-05-08T02:45:20.513Z,18.53
2023-05-08T02:46:20.612Z,18.58
2023-05-08T02:47:20.622Z,18.49
2023-05-08T02:48:20.681Z,18.60
2023-05-08T02:49:20.699Z,18.57
2023-05-08T02:50:20.725Z,18.58
2023-05-08T02:51:20.811Z,18.68
2023-05-08T02:52:20.830Z,18.51
2023-05-08T02:53:20.942Z,18.71
2023-05-08T02:54:21.086Z,18.63
2023-05-08T02:55:21.129Z,18.63
2023-05-08T02:56:21.180Z,18.77
2023-05-08T02:57:21.161Z,18.83
2023-05-08T02:58:21.277Z,18.81
2023-05-08T02:59:21.354Z,18.84
2023-05-08T03:00:21.350Z,18.97
2023-05-08T03:01:21.494Z,19.02
2023-05-08T03:02:21.454Z,19.04
2023-05-08T03:03:21.565Z,19.02
2023-05-08T03:04:21.598Z,18.91
2023-05-08T03:05:21.650Z,18.68
2023-05-08T03:06:21.667Z,18.58
2023-05-08T03:07:21.720Z,18.75
2023-05-08T03:08:21.781Z,18.81
2023-05-08T03:09:21.847Z,18.90
2023-05-08T03:10:21.907Z,18.97
2023-05-08T03:11:21.885Z,19.04
2023-05-08T03:12:21.968Z,19.04
2023-05-08T03:13:22.009Z,19.13
2023-05-08T03:14:22.059Z,19.21
2023-05-08T03:15:22.100Z,19.23
2023-05-08T03:16:22.236Z,19.29
2023-05-08T03:17:22.221Z,19.30
2023-05-08T03:18:22.256Z,19.29
2023-05-08T03:19:23.365Z,19.33
2023-05-08T03:20:22.344Z,19.37
2023-05-08T03:21:22.420Z,19.37
2023-05-08T03:22:22.514Z,19.36
2023-05-08T03:23:22.964Z,19.37
2023-05-08T03:24:22.583Z,19.30
2023-05-08T03:25:22.635Z,19.34
2023-05-08T03:26:22.745Z,19.36
2023-05-08T03:27:22.816Z,19.37
2023-05-08T03:28:22.823Z,19.34
2023-05-08T03:29:22.909Z,19.39
2023-05-08T03:30:22.916Z,19.39
2023-05-08T03:31:23.628Z,19.37
2023-05-08T03:32:23.098Z,19.30
2023-05-08T03:33:23.153Z,19.30
2023-05-08T03:34:23.144Z,19.26
2023-05-08T03:35:23.192Z,19.27
2023-05-08T03:36:23.137Z,19.27
2023-05-08T03:37:23.176Z,19.30
2023-05-08T03:38:23.227Z,19.29
2023-05-08T03:39:23.281Z,19.29
2023-05-08T03:40:23.323Z,19.32
2023-05-08T03:41:23.416Z,19.32
2023-05-08T03:42:23.422Z,19.37
2023-05-08T03:43:23.506Z,19.32
2023-05-08T03:44:23.544Z,19.26
2023-05-08T03:45:23.543Z,19.21
2023-05-08T03:46:23.596Z,19.23
2023-05-08T03:47:23.603Z,19.21
2023-05-08T03:48:23.662Z,19.25
2023-05-08T03:49:23.578Z,19.29
2023-05-08T03:50:23.565Z,19.33
2023-05-08T03:51:23.618Z,19.36
2023-05-08T03:52:23.682Z,19.26
2023-05-08T03:53:23.690Z,19.32
2023-05-08T03:54:23.758Z,19.30
2023-05-08T03:55:23.761Z,19.34
2023-05-08T03:56:25.944Z,19.39
2023-05-08T03:57:23.827Z,19.40
2023-05-08T03:58:23.895Z,19.40
2023-05-08T03:59:24.160Z,19.37
2023-05-08T04:00:24.009Z,19.40
2023-05-08T04:01:24.041Z,19.40
2023-05-08T04:02:24.236Z,19.32
2023-05-08T04:03:24.253Z,19.26
2023-05-08T04:04:24.157Z,19.11
2023-05-08T04:05:24.210Z,19.12
2023-05-08T04:06:24.198Z,19.11
2023-05-08T04:07:24.268Z,19.02
2023-05-08T04:08:24.327Z,18.98
2023-05-08T04:09:24.315Z,19.06
2023-05-08T04:10:24.371Z,18.87
2023-05-08T04:11:24.343Z,18.67
2023-05-08T04:12:24.444Z,18.72
2023-05-08T04:13:24.702Z,18.83
2023-05-08T04:14:24.530Z,18.90
2023-05-08T04:15:24.565Z,18.87
2023-05-08T04:16:24.613Z,18.97
2023-05-08T04:17:24.672Z,18.79
2023-05-08T04:18:24.697Z,18.81
2023-05-08T04:19:24.935Z,18.85
2023-05-08T04:20:24.773Z,18.87
2023-05-08T04:21:24.836Z,18.97
2023-05-08T04:22:24.817Z,18.87
2023-05-08T04:23:24.932Z,18.91
2023-05-08T04:24:25.035Z,18.97
2023-05-08T04:25:25.046Z,19.05
2023-05-08T04:26:25.107Z,19.06
2023-05-08T04:27:25.121Z,19.09
2023-05-08T04:28:25.249Z,19.15
2023-05-08T04:29:25.292Z,19.16
2023-05-08T04:30:25.266Z,19.08
2023-05-08T04:31:25.373Z,19.16
2023-05-08T04:32:25.408Z,19.18
2023-05-08T04:33:25.464Z,19.12
2023-05-08T04:34:25.544Z,19.16
2023-05-08T04:35:25.491Z,19.12
2023-05-08T04:36:25.567Z,19.13
2023-05-08T04:37:25.672Z,19.18
2023-05-08T04:38:25.688Z,19.04
2023-05-08T04:39:25.672Z,18.97
2023-05-08T04:40:25.788Z,18.81
2023-05-08T04:41:25.870Z,18.90
2023-05-08T04:42:25.847Z,18.88
2023-05-08T04:43:25.874Z,18.84
2023-05-08T04:44:25.879Z,18.84
2023-05-08T04:45:25.818Z,18.74
2023-05-08T04:46:25.985Z,18.83
2023-05-08T04:47:26.044Z,18.70
2023-05-08T04:48:26.037Z,18.51
2023-05-08T04:49:26.048Z,18.60
2023-05-08T04:50:26.011Z,18.64
2023-05-08T04:51:26.088Z,18.72
2023-05-08T04:52:26.124Z,18.60
2023-05-08T04:53:26.175Z,18.75
2023-05-08T04:54:26.245Z,18.78
2023-05-08T04:55:26.322Z,18.91
2023-05-08T04:56:26.331Z,18.94
2023-05-08T04:57:26.391Z,19.02
2023-05-08T04:58:26.474Z,19.05
2023-05-08T04:59:26.480Z,19.09
2023-05-08T05:03:13.446Z,18.91
2023-05-08T05:04:05.724Z,18.66
2023-05-08T05:05:05.666Z,18.74
2023-05-08T05:06:05.612Z,18.72
2023-05-08T05:07:05.654Z,18.63
2023-05-08T05:08:05.604Z,18.66
2023-05-08T05:09:05.646Z,18.51
2023-05-08T05:10:05.609Z,18.39
2023-05-08T05:11:05.616Z,18.36
2023-05-08T05:12:05.606Z,18.44
2023-05-08T05:13:05.610Z,18.40
2023-05-08T05:14:05.588Z,18.57
2023-05-08T05:15:05.625Z,18.64
2023-05-08T05:16:05.573Z,18.66
2023-05-08T05:17:05.500Z,18.70
2023-05-08T05:18:05.580Z,18.75
2023-05-08T05:19:06.882Z,18.79
2023-05-08T05:20:05.594Z,18.66
2023-05-08T05:21:05.537Z,18.71
2023-05-08T05:22:05.522Z,18.71
2023-05-08T05:23:05.546Z,18.78
2023-05-08T05:24:05.523Z,18.84
2023-05-08T05:25:05.522Z,18.85
2023-05-08T05:26:05.551Z,18.93
2023-05-08T05:27:05.603Z,18.71
2023-05-08T05:28:05.667Z,18.63
2023-05-08T05:29:06.155Z,18.57
2023-05-08T05:30:05.785Z,18.41
2023-05-08T05:31:05.771Z,18.32
2023-05-08T05:32:05.764Z,18.36
2023-05-08T05:33:05.923Z,18.37
2023-05-08T05:34:07.016Z,18.49
2023-05-08T05:35:06.572Z,18.49
2023-05-08T05:36:06.117Z,18.41
2023-05-08T05:37:06.970Z,18.39
2023-05-08T05:38:06.374Z,18.19
2023-05-08T05:39:06.634Z,18.32
2023-05-08T05:40:06.161Z,18.20
2023-05-08T05:41:06.222Z,18.06
2023-05-08T05:42:06.139Z,17.94
2023-05-08T05:43:06.169Z,17.98
2023-05-08T05:44:06.592Z,17.98
2023-05-08T05:45:06.195Z,18.04
2023-05-08T05:47:36.873Z,18.09
2023-05-08T05:48:26.263Z,18.06
2023-05-08T05:49:26.292Z,18.06
2023-05-08T05:50:26.201Z,18.17
2023-05-08T05:51:26.210Z,18.20
2023-05-08T05:52:26.210Z,18.25
2023-05-08T05:53:26.212Z,18.39
2023-05-08T05:54:26.332Z,18.29
2023-05-08T05:55:26.252Z,18.22
2023-05-08T05:56:26.236Z,18.30
2023-05-08T05:57:26.253Z,18.33
2023-05-08T05:58:26.167Z,18.36
2023-05-08T05:59:26.370Z,18.41
2023-05-08T06:00:26.295Z,18.41
2023-05-08T06:01:26.206Z,18.44
2023-05-08T06:02:26.223Z,18.49
2023-05-08T06:03:26.248Z,18.57
2023-05-08T06:04:26.473Z,18.53
2023-05-08T06:05:26.106Z,18.54
2023-05-08T06:06:26.213Z,18.37
2023-05-08T06:07:26.822Z,18.46
2023-05-08T06:08:26.135Z,18.53
2023-05-08T06:09:26.943Z,18.56
2023-05-08T06:10:26.071Z,18.64
2023-05-08T06:11:26.150Z,18.37
2023-05-08T06:12:26.255Z,18.41
2023-05-08T06:13:26.194Z,18.36
2023-05-08T06:14:26.404Z,18.26
2023-05-08T06:15:26.185Z,18.17
2023-05-08T06:16:26.325Z,18.30
2023-05-08T06:17:26.287Z,18.22
2023-05-08T06:18:26.395Z,18.19
2023-05-08T06:19:26.500Z,18.13
2023-05-08T06:20:26.711Z,18.29
2023-05-08T06:21:26.442Z,18.17
2023-05-08T06:22:26.417Z,18.35
2023-05-08T06:23:26.526Z,18.44
2023-05-08T06:24:28.378Z,18.40
2023-05-08T06:25:26.586Z,18.50
2023-05-08T06:26:26.774Z,18.67
2023-05-08T06:27:26.957Z,18.68
2023-05-08T06:28:26.871Z,18.64
2023-05-08T06:29:26.924Z,18.77
2023-05-08T06:30:27.922Z,18.90
2023-05-08T06:31:27.128Z,18.97
2023-05-08T06:32:26.976Z,18.95
2023-05-08T06:33:27.250Z,19.01
2023-05-08T06:34:27.874Z,18.97
2023-05-08T06:35:27.458Z,18.72
2023-05-08T06:36:27.032Z,18.75
2023-05-08T06:37:26.982Z,18.41
2023-05-08T06:38:26.992Z,18.47
2023-05-08T06:39:27.093Z,18.57
2023-05-08T06:40:27.267Z,18.40
2023-05-08T06:41:27.204Z,18.13
2023-05-08T06:42:28.704Z,17.98
2023-05-08T06:43:27.211Z,18.04
2023-05-08T06:44:27.384Z,18.23
2023-05-08T06:45:27.216Z,18.19
2023-05-08T06:46:27.402Z,18.28
2023-05-08T06:47:28.067Z,18.46
2023-05-08T06:48:28.368Z,18.46
2023-05-08T06:49:27.960Z,18.53
2023-05-08T06:50:27.650Z,18.40
2023-05-08T06:51:27.400Z,18.50
2023-05-08T06:52:27.290Z,18.57
2023-05-08T06:53:27.965Z,18.36
2023-05-08T06:54:27.290Z,18.58
2023-05-08T06:55:28.412Z,18.54
2023-05-08T06:56:27.498Z,18.56
2023-05-08T06:57:27.716Z,18.51
2023-05-08T06:58:27.902Z,18.53
2023-05-08T06:59:27.316Z,18.71
2023-05-08T07:00:27.420Z,18.79
2023-05-08T07:01:27.237Z,18.66
2023-05-08T07:02:27.245Z,18.66
2023-05-08T07:03:27.448Z,18.37
2023-05-08T07:04:27.472Z,18.39
2023-05-08T07:05:27.248Z,18.29
2023-05-08T07:06:27.233Z,18.37
2023-05-08T07:07:27.267Z,18.40
2023-05-08T07:08:27.169Z,18.23
2023-05-08T07:09:27.165Z,18.17
2023-05-08T07:10:27.313Z,18.35
2023-05-08T07:11:27.195Z,18.39
2023-05-08T07:12:27.202Z,18.33
2023-05-08T07:13:27.231Z,18.19
2023-05-08T07:14:27.230Z,18.19
2023-05-08T07:15:27.304Z,18.08
2023-05-08T07:16:27.240Z,18.19
2023-05-08T07:17:27.604Z,18.33
2023-05-08T07:18:27.204Z,18.36
2023-05-08T07:19:27.234Z,18.46
2023-05-08T07:20:27.256Z,18.56
2023-05-08T07:21:28.990Z,18.72
2023-05-08T07:22:27.302Z,18.83
2023-05-08T07:23:27.264Z,18.93
2023-05-08T07:24:27.318Z,18.94
2023-05-08T07:25:27.340Z,18.99
2023-05-08T07:26:27.276Z,18.77
2023-05-08T07:27:27.185Z,18.93
2023-05-08T07:28:27.280Z,19.01
2023-05-08T07:29:27.301Z,19.01
2023-05-08T07:30:27.408Z,19.02
2023-05-08T07:31:27.674Z,18.99
2023-05-08T07:32:28.406Z,19.02
2023-05-08T07:33:27.511Z,19.02
2023-05-08T07:34:28.381Z,19.01
2023-05-08T07:35:27.958Z,19.05
2023-05-08T07:36:27.710Z,18.60
2023-05-08T07:37:27.661Z,18.53
2023-05-08T07:38:27.607Z,18.68
2023-05-08T07:39:27.579Z,18.33
2023-05-08T07:40:27.639Z,18.39
2023-05-08T07:41:27.674Z,18.53
2023-05-08T07:42:27.590Z,18.53
2023-05-08T07:43:27.617Z,18.56
2023-05-08T07:44:27.658Z,18.70
2023-05-08T07:45:27.923Z,18.71
2023-05-08T07:46:27.544Z,18.35
2023-05-08T07:47:27.521Z,18.17
2023-05-08T07:48:27.621Z,18.40
2023-05-08T07:49:27.697Z,18.40
2023-05-08T07:50:27.867Z,18.43
2023-05-08T07:51:27.750Z,18.25
2023-05-08T07:52:27.806Z,18.28
2023-05-08T07:53:27.862Z,18.46
2023-05-08T07:54:28.733Z,18.28
2023-05-08T07:55:28.365Z,18.23
2023-05-08T07:56:28.524Z,18.01
2023-05-08T07:57:28.078Z,18.17
2023-05-08T07:58:28.315Z,18.22
2023-05-08T07:59:28.131Z,18.04
2023-05-08T08:00:28.902Z,17.92
2023-05-08T08:01:28.158Z,18.09
2023-05-08T08:02:28.399Z,18.19
2023-05-08T08:03:29.084Z,18.30
2023-05-08T08:04:28.398Z,18.39
2023-05-08T08:05:29.762Z,18.32
2023-05-08T08:06:28.518Z,18.33
2023-05-08T08:07:29.107Z,17.96
2023-05-08T08:08:28.500Z,18.19
2023-05-08T08:09:28.727Z,18.26
2023-05-08T08:10:28.612Z,18.09
2023-05-08T08:11:29.427Z,18.25
2023-05-08T08:12:29.554Z,18.35
2023-05-08T08:13:28.617Z,18.33
2023-05-08T08:14:29.755Z,18.35
2023-05-08T08:15:28.911Z,18.51
2023-05-08T08:16:28.670Z,18.58
2023-05-08T08:17:29.236Z,18.68
2023-05-08T08:18:29.304Z,18.81
2023-05-08T08:19:29.105Z,18.95
2023-05-08T08:20:29.506Z,18.93
2023-05-08T08:21:29.017Z,18.94
2023-05-08T08:22:28.998Z,18.71
2023-05-08T08:23:29.001Z,18.85
2023-05-08T08:24:29.029Z,18.84
2023-05-08T08:25:29.015Z,18.87
2023-05-08T08:26:29.118Z,18.84
2023-05-08T08:27:29.039Z,18.90
2023-05-08T08:28:29.119Z,18.99
2023-05-08T08:29:29.046Z,19.18
2023-05-08T08:30:29.508Z,19.22
2023-05-08T08:31:29.218Z,19.29
2023-05-08T08:32:29.312Z,19.39
2023-05-08T08:33:29.294Z,19.50
2023-05-08T08:34:29.312Z,19.53
2023-05-08T08:35:29.446Z,19.58
2023-05-08T08:36:29.404Z,19.54
2023-05-08T08:37:29.326Z,19.49
2023-05-08T08:38:29.407Z,19.54
2023-05-08T08:39:29.424Z,19.56
2023-05-08T08:40:29.534Z,19.43
2023-05-08T08:41:29.549Z,19.49
2023-05-08T08:42:29.551Z,19.50
2023-05-08T08:43:29.466Z,19.53
2023-05-08T08:44:29.575Z,19.36
2023-05-08T08:45:29.562Z,19.56
2023-05-08T08:46:29.706Z,19.61
2023-05-08T08:47:29.682Z,19.67
2023-05-08T08:48:29.696Z,19.71
2023-05-08T08:49:29.687Z,19.73
2023-05-08T08:50:29.719Z,19.73
2023-05-08T08:51:29.718Z,19.82
2023-05-08T08:52:29.805Z,19.70
2023-05-08T08:53:29.743Z,19.58
2023-05-08T08:54:29.757Z,19.82
2023-05-08T08:55:29.852Z,19.94
2023-05-08T08:56:29.972Z,20.01
2023-05-08T08:57:29.856Z,20.08
2023-05-08T08:58:29.999Z,20.13
2023-05-08T08:59:29.911Z,20.26
2023-05-08T09:00:30.108Z,20.35
2023-05-08T09:01:30.553Z,20.43
2023-05-08T09:02:30.104Z,20.25
2023-05-08T09:03:30.369Z,20.25
2023-05-08T09:04:30.066Z,20.32
2023-05-08T09:05:30.016Z,20.43
2023-05-08T09:06:30.412Z,20.56
2023-05-08T09:07:30.133Z,20.57
2023-05-08T09:08:30.148Z,20.51
2023-05-08T09:09:30.160Z,20.53
2023-05-08T09:10:30.258Z,20.66
2023-05-08T09:11:30.444Z,20.63
2023-05-08T09:12:30.380Z,20.74
2023-05-08T09:13:31.013Z,20.83
2023-05-08T09:14:30.482Z,20.91
2023-05-08T09:15:30.501Z,20.98
2023-05-08T09:16:31.014Z,21.06
2023-05-08T09:17:30.670Z,21.09
2023-05-08T09:18:30.643Z,21.15
2023-05-08T09:19:30.733Z,21.21
2023-05-08T09:20:30.723Z,21.25
2023-05-08T09:21:30.953Z,21.15
2023-05-08T09:22:30.860Z,21.23
2023-05-08T09:23:30.870Z,21.12
2023-05-08T09:24:31.175Z,21.06
2023-05-08T09:25:30.985Z,21.16
2023-05-08T09:26:31.453Z,21.23
2023-05-08T09:27:31.090Z,21.33
2023-05-08T09:28:31.217Z,21.40
2023-05-08T09:29:31.211Z,21.50
2023-05-08T09:30:31.237Z,21.58
2023-05-08T09:31:32.677Z,21.53
2023-05-08T09:32:31.431Z,21.46
2023-05-08T09:33:31.551Z,21.53
2023-05-08T09:34:32.269Z,21.57
2023-05-08T09:35:31.513Z,21.58
2023-05-08T09:36:31.966Z,21.63
2023-05-08T09:37:31.591Z,21.67
2023-05-08T09:38:31.695Z,21.74
2023-05-08T09:39:31.716Z,21.76
2023-05-08T09:40:31.795Z,21.78
2023-05-08T09:41:32.797Z,21.87
2023-05-08T09:42:31.903Z,21.83
2023-05-08T09:43:31.976Z,21.63
2023-05-08T09:44:32.016Z,21.58
2023-05-08T09:45:32.389Z,21.64
2023-05-08T09:46:32.069Z,21.72
2023-05-08T09:47:32.205Z,21.68
2023-05-08T09:48:32.139Z,21.72
2023-05-08T09:49:32.284Z,21.61
2023-05-08T09:50:32.291Z,21.57
2023-05-08T09:51:32.490Z,21.68
2023-05-08T09:52:32.415Z,21.73
2023-05-08T09:53:32.524Z,21.49
2023-05-08T09:54:32.405Z,21.66
2023-05-08T09:55:32.335Z,21.49
2023-05-08T09:56:32.591Z,21.50
2023-05-08T09:57:32.390Z,21.54
2023-05-08T09:58:32.398Z,21.53
2023-05-08T09:59:34.203Z,21.61
2023-05-08T10:00:32.348Z,21.72
2023-05-08T10:01:32.702Z,21.83
2023-05-08T10:02:32.462Z,21.94
2023-05-08T10:03:32.616Z,21.94
2023-05-08T10:04:32.481Z,22.09
2023-05-08T10:05:32.942Z,22.21
2023-05-08T10:06:32.995Z,22.13
2023-05-08T10:07:32.675Z,22.16
2023-05-08T10:08:32.681Z,22.25
2023-05-08T10:09:46.898Z,22.34
2023-05-08T10:10:33.736Z,22.40
2023-05-08T10:11:32.730Z,22.46
2023-05-08T10:12:32.749Z,22.29
2023-05-08T10:13:32.752Z,22.12
2023-05-08T10:14:33.490Z,22.15
2023-05-08T10:15:34.486Z,22.21
2023-05-08T10:16:32.700Z,22.18
2023-05-08T10:17:32.606Z,22.28
2023-05-08T10:18:32.594Z,22.32
2023-05-08T10:19:32.562Z,22.45
2023-05-08T10:20:32.598Z,22.56
2023-05-08T10:21:32.973Z,22.43
2023-05-08T10:22:32.723Z,22.57
2023-05-08T10:23:32.683Z,22.59
2023-05-08T10:24:32.728Z,22.62
2023-05-08T10:25:32.818Z,22.57
2023-05-08T10:26:32.977Z,22.62
2023-05-08T10:27:32.748Z,22.67
2023-05-08T10:28:32.838Z,22.71
2023-05-08T10:29:32.917Z,22.70
2023-05-08T10:30:32.968Z,22.60
2023-05-08T10:31:33.535Z,22.63
2023-05-08T10:32:33.016Z,22.74
2023-05-08T10:33:33.997Z,22.84
2023-05-08T10:34:33.091Z,22.83
2023-05-08T10:35:34.018Z,22.78
2023-05-08T10:36:33.195Z,22.82
2023-05-08T10:37:34.296Z,22.93
2023-05-08T10:38:33.357Z,23.00
2023-05-08T10:39:34.867Z,23.08
2023-05-08T10:40:33.448Z,22.86
2023-05-08T10:41:33.427Z,23.05
2023-05-08T10:42:33.419Z,22.93
2023-05-08T10:43:33.369Z,22.64
2023-05-08T10:44:33.351Z,22.56
2023-05-08T10:45:33.355Z,22.70
2023-05-08T10:46:33.362Z,22.82
2023-05-08T10:47:33.533Z,22.56
2023-05-08T10:48:33.302Z,22.83
2023-05-08T10:49:33.307Z,22.95
2023-05-08T10:50:33.287Z,23.10
2023-05-08T10:51:33.313Z,23.22
2023-05-08T10:52:33.382Z,23.28
2023-05-08T10:53:33.971Z,23.01
2023-05-08T10:54:33.299Z,23.08
2023-05-08T10:55:33.314Z,23.23
2023-05-08T10:56:33.321Z,23.39
2023-05-08T10:57:33.276Z,23.50
2023-05-08T10:58:33.234Z,23.66
2023-05-08T10:59:33.229Z,23.74
2023-05-08T11:00:33.272Z,23.62
2023-05-08T11:01:33.996Z,23.67
2023-05-08T11:02:33.292Z,23.73
2023-05-08T11:03:33.511Z,23.79
2023-05-08T11:04:33.477Z,23.83
2023-05-08T11:05:33.226Z,23.70
2023-05-08T11:06:33.465Z,23.55
2023-05-08T11:07:33.488Z,23.69
2023-05-08T11:08:33.185Z,23.63
2023-05-08T11:09:34.019Z,23.46
2023-05-08T11:10:33.210Z,23.49
2023-05-08T11:11:33.191Z,23.44
2023-05-08T11:12:33.417Z,23.46
2023-05-08T11:13:33.219Z,23.59
2023-05-08T11:14:33.222Z,23.69
2023-05-08T11:15:33.284Z,23.84
2023-05-08T11:16:33.969Z,24.01
2023-05-08T11:17:33.525Z,24.19
2023-05-08T11:19:34.398Z,24.38
2023-05-08T11:20:33.360Z,24.46
2023-05-08T11:21:33.430Z,24.58
2023-05-08T11:22:33.367Z,24.63
2023-05-08T11:23:33.388Z,24.72
2023-05-08T11:24:33.339Z,24.84
2023-05-08T11:25:33.389Z,24.86
2023-05-08T11:26:33.327Z,24.42
2023-05-08T11:27:33.480Z,24.63
2023-05-08T11:28:34.312Z,24.74
2023-05-08T11:29:33.440Z,24.82
2023-05-08T11:30:36.372Z,24.94
2023-05-08T11:31:33.506Z,25.01
2023-05-08T11:32:33.501Z,25.04
2023-05-08T11:33:33.410Z,25.19
2023-05-08T11:34:34.038Z,25.10
2023-05-08T11:35:33.374Z,25.13
2023-05-08T11:36:33.381Z,25.14
2023-05-08T11:37:33.492Z,25.31
2023-05-08T11:38:33.349Z,25.41
2023-05-08T11:39:33.305Z,25.56
2023-05-08T11:40:33.314Z,25.59
2023-05-08T11:41:33.370Z,25.50
2023-05-08T11:42:33.329Z,25.66
2023-05-08T11:43:33.416Z,25.68
2023-05-08T11:44:33.299Z,25.70
2023-05-08T11:45:33.297Z,25.66
2023-05-08T11:46:33.373Z,25.66
2023-05-08T11:47:34.016Z,25.79
2023-05-08T11:48:33.287Z,25.66
2023-05-08T11:49:33.269Z,25.49
2023-05-08T11:50:33.371Z,25.27
2023-05-08T11:51:33.235Z,25.17
2023-05-08T11:52:33.301Z,25.25
2023-05-08T11:53:33.306Z,25.32
2023-05-08T11:54:33.285Z,25.35
2023-05-08T11:55:33.206Z,25.41
2023-05-08T11:56:33.266Z,25.52
2023-05-08T11:57:33.222Z,25.28
2023-05-08T11:58:33.244Z,24.94
2023-05-08T11:59:33.214Z,25.29
2023-05-08T12:00:33.233Z,25.42
2023-05-08T12:01:33.259Z,25.55
2023-05-08T12:02:34.046Z,25.62
2023-05-08T12:03:33.364Z,25.77
2023-05-08T12:04:33.209Z,25.89
2023-05-08T12:05:33.189Z,25.91
2023-05-08T12:06:33.127Z,25.94
2023-05-08T12:07:33.181Z,26.00
2023-05-08T12:08:33.253Z,26.04
2023-05-08T12:09:33.296Z,26.03
2023-05-08T12:10:33.266Z,26.07
2023-05-08T12:11:33.320Z,25.96
2023-05-08T12:12:33.316Z,25.52
2023-05-08T12:13:33.416Z,24.98
2023-05-08T12:14:33.433Z,25.11
2023-05-08T12:15:33.453Z,24.79
2023-05-08T12:16:33.473Z,24.15
2023-05-08T12:17:33.574Z,24.59
2023-05-08T12:18:33.521Z,24.45
2023-05-08T12:19:33.529Z,24.70
2023-05-08T12:20:33.977Z,24.91
2023-05-08T12:21:33.541Z,24.89
2023-05-08T12:22:33.574Z,24.90
2023-05-08T12:23:33.513Z,25.04
2023-05-08T12:24:33.507Z,25.01
2023-05-08T12:25:33.529Z,25.13
2023-05-08T12:26:33.515Z,25.21
2023-05-08T12:27:33.634Z,25.41
2023-05-08T12:28:33.595Z,25.32
2023-05-08T12:29:33.607Z,25.58
2023-05-08T12:30:33.651Z,25.68
2023-05-08T12:31:33.735Z,25.91
2023-05-08T12:32:33.822Z,26.04
2023-05-08T12:33:33.793Z,26.13
2023-05-08T12:34:34.045Z,26.34
2023-05-08T12:35:33.815Z,26.27
2023-05-08T12:36:34.044Z,26.35
2023-05-08T12:37:34.103Z,26.60
2023-05-08T12:38:33.949Z,26.71
2023-05-08T12:39:33.946Z,26.82
2023-05-08T12:40:34.021Z,26.79
2023-05-08T12:41:34.002Z,26.52
2023-05-08T12:42:34.057Z,26.63
2023-05-08T12:43:34.055Z,26.45
2023-05-08T12:44:34.081Z,26.45
2023-05-08T12:45:34.197Z,26.54
2023-05-08T12:46:34.269Z,26.39
2023-05-08T12:47:34.315Z,26.34
2023-05-08T12:48:34.282Z,26.32
2023-05-08T12:49:34.281Z,26.32
2023-05-08T12:50:34.302Z,26.34
2023-05-08T12:51:34.286Z,26.41
2023-05-08T12:52:34.321Z,26.38
2023-05-08T12:53:34.331Z,26.44
2023-05-08T12:54:34.327Z,26.42
2023-05-08T12:55:34.356Z,26.52
2023-05-08T12:56:34.348Z,26.56
2023-05-08T12:57:34.324Z,26.59